Time;durP1;ratioP1;P1;durP2;ratioP2;P2;SDS_P1;SDS_P2;PMS_P1;PMS_P2;Temp;Humidity;BMP_temperature;BMP_pressure;BME280_temperature;BME280_humidity;BME280_pressure;Samples;Min_cycle;Max_cycle;Signal;HPM_P1;HPM_P2
2022/11/20 00:01:07;;;;;;;13.02;9.70;;;;;;;;;;5092087;27;20195;-68
2022/11/20 00:03:33;;;;;;;14.68;9.77;;;;;;;;;;5125948;27;20109;-68
2022/11/20 00:06:01;;;;;;;17.40;9.95;;;;;;;;;;5116886;27;20122;-68
2022/11/20 00:08:27;;;;;;;14.57;9.27;;;;;;;;;;5118205;27;20044;-68
2022/11/20 00:10:53;;;;;;;13.45;10.73;;;;;;;;;;5109099;27;20051;-68
2022/11/20 00:13:19;;;;;;;12.65;7.88;;;;;;;;;;5113763;27;20393;-68
2022/11/20 00:15:45;;;;;;;17.35;9.48;;;;;;;;;;5113809;27;20043;-67
2022/11/20 00:18:11;;;;;;;15.90;9.93;;;;;;;;;;5107605;27;20177;-68
2022/11/20 00:20:37;;;;;;;16.10;9.38;;;;;;;;;;5125502;27;20421;-68
2022/11/20 00:23:03;;;;;;;15.10;8.95;;;;;;;;;;5119861;27;20031;-67
2022/11/20 00:25:29;;;;;;;15.38;9.65;;;;;;;;;;5109058;28;20047;-68
2022/11/20 00:27:56;;;;;;;12.20;8.38;;;;;;;;;;5117105;27;20031;-69
2022/11/20 00:30:22;;;;;;;14.80;9.70;;;;;;;;;;5108463;27;20099;-69
2022/11/20 00:32:48;;;;;;;15.98;9.38;;;;;;;;;;5112796;27;20084;-68
2022/11/20 00:35:14;;;;;;;14.88;9.90;;;;;;;;;;5102172;27;20043;-68
2022/11/20 00:37:41;;;;;;;14.50;9.20;;;;;;;;;;5116598;27;20568;-68
2022/11/20 00:40:07;;;;;;;17.27;10.27;;;;;;;;;;5124281;27;20039;-68
2022/11/20 00:42:33;;;;;;;13.57;8.52;;;;;;;;;;5120769;27;20031;-68
2022/11/20 00:44:59;;;;;;;17.30;10.07;;;;;;;;;;5126129;27;20176;-69
2022/11/20 00:47:26;;;;;;;14.82;9.73;;;;;;;;;;5119307;27;20190;-68
2022/11/20 00:49:52;;;;;;;13.13;8.95;;;;;;;;;;5104220;27;20092;-68
2022/11/20 00:52:18;;;;;;;16.02;9.27;;;;;;;;;;5119034;27;20481;-69
2022/11/20 00:54:44;;;;;;;13.18;8.32;;;;;;;;;;5086298;27;20476;-68
2022/11/20 00:57:10;;;;;;;12.82;9.57;;;;;;;;;;5116987;27;20036;-68
2022/11/20 00:59:36;;;;;;;13.23;9.20;;;;;;;;;;5117173;27;20510;-68
2022/11/20 01:02:02;;;;;;;13.82;9.35;;;;;;;;;;5113635;27;20036;-68
2022/11/20 01:04:28;;;;;;;13.55;9.10;;;;;;;;;;5107029;27;20476;-68
2022/11/20 01:06:54;;;;;;;12.57;8.70;;;;;;;;;;5127101;28;20042;-68
2022/11/20 01:09:20;;;;;;;16.05;9.48;;;;;;;;;;5105423;28;20078;-69
2022/11/20 01:11:47;;;;;;;14.38;9.02;;;;;;;;;;5107107;28;20507;-68
2022/11/20 01:14:14;;;;;;;15.70;8.32;;;;;;;;;;5107752;28;20039;-69
2022/11/20 01:16:42;;;;;;;13.23;8.38;;;;;;;;;;5120772;28;20114;-68
2022/11/20 01:19:11;;;;;;;16.33;10.93;;;;;;;;;;5118424;28;20058;-68
2022/11/20 01:21:38;;;;;;;12.40;7.97;;;;;;;;;;5110443;28;20058;-69
2022/11/20 01:24:07;;;;;;;14.25;8.75;;;;;;;;;;5118777;28;20042;-68
2022/11/20 01:26:34;;;;;;;11.98;8.35;;;;;;;;;;5118176;28;20122;-68
2022/11/20 01:29:01;;;;;;;13.10;8.82;;;;;;;;;;5114971;28;20403;-68
2022/11/20 01:31:31;;;;;;;13.65;8.52;;;;;;;;;;5108235;28;20121;-68
2022/11/20 01:33:58;;;;;;;13.00;8.63;;;;;;;;;;5107633;28;20047;-68
2022/11/20 01:36:26;;;;;;;16.83;10.82;;;;;;;;;;5126894;28;20118;-68
2022/11/20 01:38:53;;;;;;;12.70;8.32;;;;;;;;;;5112357;27;20084;-68
2022/11/20 01:44:04;;;;;;;15.23;9.40;;;;;;;;;;5125032;27;20124;-68
2022/11/20 01:46:35;;;;;;;13.50;7.85;;;;;;;;;;5132187;27;20437;-68
2022/11/20 01:49:02;;;;;;;16.42;9.43;;;;;;;;;;5129430;27;20396;-68
2022/11/20 01:51:28;;;;;;;12.93;8.30;;;;;;;;;;5132463;27;20106;-68
2022/11/20 01:53:55;;;;;;;15.73;9.55;;;;;;;;;;5131752;27;20031;-68
2022/11/20 01:56:22;;;;;;;13.93;8.35;;;;;;;;;;5129302;27;20112;-69
2022/11/20 01:58:50;;;;;;;16.17;9.45;;;;;;;;;;5127236;27;20092;-68
2022/11/20 02:01:16;;;;;;;13.18;8.50;;;;;;;;;;5120574;27;20070;-68
2022/11/20 02:03:44;;;;;;;13.40;8.02;;;;;;;;;;5104389;28;20047;-69
2022/11/20 02:06:17;;;;;;;14.73;9.38;;;;;;;;;;5130129;27;20078;-68
2022/11/20 02:08:44;;;;;;;14.07;8.45;;;;;;;;;;5128965;27;20492;-68
2022/11/20 02:11:10;;;;;;;12.90;8.23;;;;;;;;;;5127846;27;20047;-68
2022/11/20 02:13:45;;;;;;;13.30;8.75;;;;;;;;;;5109472;27;20035;-68
2022/11/20 02:16:16;;;;;;;13.32;8.43;;;;;;;;;;5117223;27;20038;-69
2022/11/20 02:18:43;;;;;;;13.82;8.63;;;;;;;;;;5119731;27;20047;-68
2022/11/20 02:21:12;;;;;;;16.50;9.68;;;;;;;;;;5110284;27;20138;-69
2022/11/20 02:23:57;;;;;;;16.75;9.57;;;;;;;;;;5122985;27;20200;-68
2022/11/20 02:26:24;;;;;;;12.82;8.13;;;;;;;;;;5120665;27;20038;-69
2022/11/20 02:28:51;;;;;;;16.42;9.55;;;;;;;;;;5117460;27;20405;-68
2022/11/20 02:31:17;;;;;;;12.45;8.35;;;;;;;;;;5110898;27;20087;-68
2022/11/20 02:33:43;;;;;;;12.00;8.45;;;;;;;;;;5123518;27;20488;-69
2022/11/20 02:36:11;;;;;;;12.27;8.57;;;;;;;;;;5124412;27;20254;-68
2022/11/20 02:38:38;;;;;;;12.57;8.60;;;;;;;;;;5131167;27;20042;-68
2022/11/20 02:41:04;;;;;;;17.67;10.02;;;;;;;;;;5126744;27;20023;-69
2022/11/20 02:43:30;;;;;;;13.93;9.32;;;;;;;;;;5110578;27;20035;-69
2022/11/20 02:45:56;;;;;;;13.77;9.13;;;;;;;;;;5112646;27;20034;-69
2022/11/20 02:48:22;;;;;;;15.05;9.23;;;;;;;;;;5113411;27;20043;-68
2022/11/20 02:50:48;;;;;;;12.55;8.55;;;;;;;;;;5108088;28;20043;-69
2022/11/20 02:53:14;;;;;;;12.13;7.45;;;;;;;;;;5109411;27;20062;-68
2022/11/20 02:55:40;;;;;;;16.02;9.98;;;;;;;;;;5104381;27;20468;-68
2022/11/20 02:58:07;;;;;;;16.48;9.02;;;;;;;;;;5124405;27;20050;-68
2022/11/20 03:00:33;;;;;;;15.23;9.50;;;;;;;;;;5119049;27;20547;-68
2022/11/20 03:02:59;;;;;;;12.52;8.40;;;;;;;;;;5124228;27;20039;-68
2022/11/20 03:05:25;;;;;;;11.10;7.57;;;;;;;;;;5123895;27;20038;-68
2022/11/20 03:07:51;;;;;;;18.60;9.48;;;;;;;;;;5125840;27;20059;-69
2022/11/20 03:10:17;;;;;;;13.43;8.15;;;;;;;;;;5104865;27;20107;-68
2022/11/20 03:12:44;;;;;;;14.10;8.43;;;;;;;;;;5094516;27;20043;-68
2022/11/20 03:15:10;;;;;;;13.02;8.73;;;;;;;;;;5125044;27;20108;-69
2022/11/20 03:17:36;;;;;;;13.95;8.23;;;;;;;;;;5087062;27;20096;-69
2022/11/20 03:20:02;;;;;;;11.35;7.57;;;;;;;;;;5111643;27;20039;-69
2022/11/20 03:22:32;;;;;;;11.80;8.13;;;;;;;;;;5111073;27;20035;-68
2022/11/20 03:24:58;;;;;;;11.05;7.65;;;;;;;;;;5121167;27;20188;-68
2022/11/20 03:27:24;;;;;;;11.95;7.85;;;;;;;;;;5127008;27;20031;-68
2022/11/20 03:29:50;;;;;;;11.05;7.82;;;;;;;;;;5109300;28;20035;-69
2022/11/20 03:32:16;;;;;;;11.77;7.35;;;;;;;;;;5125221;27;20034;-69
2022/11/20 03:34:42;;;;;;;12.15;8.07;;;;;;;;;;5106351;27;20046;-68
2022/11/20 03:37:08;;;;;;;13.15;7.90;;;;;;;;;;5126926;27;20039;-68
2022/11/20 03:39:34;;;;;;;11.23;7.07;;;;;;;;;;5123500;27;20031;-69
2022/11/20 03:42:00;;;;;;;10.77;7.75;;;;;;;;;;5092247;27;20066;-68
2022/11/20 03:44:26;;;;;;;11.70;7.35;;;;;;;;;;5123011;27;20039;-68
2022/11/20 03:46:53;;;;;;;10.30;7.50;;;;;;;;;;5109952;27;20492;-68
2022/11/20 03:49:19;;;;;;;11.88;7.85;;;;;;;;;;5088042;27;20035;-68
2022/11/20 03:51:45;;;;;;;12.07;8.13;;;;;;;;;;5126727;27;20408;-68
2022/11/20 03:54:11;;;;;;;13.65;7.75;;;;;;;;;;5129158;27;20042;-69
2022/11/20 03:56:39;;;;;;;12.20;8.65;;;;;;;;;;5108177;28;20038;-69
2022/11/20 03:59:05;;;;;;;14.27;8.40;;;;;;;;;;5089011;27;20055;-68
2022/11/20 04:01:33;;;;;;;11.77;7.38;;;;;;;;;;5107529;28;20043;-69
2022/11/20 04:03:59;;;;;;;13.63;8.20;;;;;;;;;;5099894;27;20118;-68
2022/11/20 04:06:28;;;;;;;11.88;7.38;;;;;;;;;;5125477;27;20061;-69
2022/11/20 04:08:55;;;;;;;12.10;7.50;;;;;;;;;;5123084;27;20035;-68
2022/11/20 04:11:29;;;;;;;10.80;8.35;;;;;;;;;;5107116;28;20048;-68
2022/11/20 04:13:56;;;;;;;13.60;8.45;;;;;;;;;;5116164;27;20087;-68
2022/11/20 04:16:23;;;;;;;11.02;7.40;;;;;;;;;;5125555;27;20092;-69
2022/11/20 04:18:56;;;;;;;12.07;8.02;;;;;;;;;;5124484;27;20070;-69
2022/11/20 04:21:22;;;;;;;;;;;;;;;;;;5108316;27;20400;-68
2022/11/20 04:23:49;;;;;;;10.73;7.18;;;;;;;;;;5127010;27;19923;-68
2022/11/20 04:26:15;;;;;;;11.45;8.05;;;;;;;;;;5123524;27;20039;-68
2022/11/20 04:28:41;;;;;;;13.05;8.45;;;;;;;;;;5112586;27;20164;-69
2022/11/20 04:31:08;;;;;;;13.05;8.68;;;;;;;;;;5117758;27;20088;-68
2022/11/20 04:33:35;;;;;;;11.18;8.13;;;;;;;;;;5106775;27;20027;-68
2022/11/20 04:36:03;;;;;;;13.90;9.15;;;;;;;;;;5124798;27;20031;-68
2022/11/20 04:38:29;;;;;;;9.07;7.07;;;;;;;;;;5108440;27;20054;-68
2022/11/20 04:40:59;;;;;;;14.13;8.70;;;;;;;;;;5121914;27;20110;-68
2022/11/20 04:43:25;;;;;;;13.52;8.35;;;;;;;;;;5106870;28;20047;-68
2022/11/20 04:45:52;;;;;;;10.18;7.80;;;;;;;;;;5122035;27;20508;-69
2022/11/20 04:48:18;;;;;;;14.10;8.15;;;;;;;;;;5124549;27;20035;-69
2022/11/20 04:50:44;;;;;;;12.68;8.30;;;;;;;;;;5125270;27;20054;-69
2022/11/20 04:53:10;;;;;;;13.48;8.48;;;;;;;;;;5116467;27;20043;-69
2022/11/20 04:55:36;;;;;;;13.18;7.90;;;;;;;;;;5128013;27;20038;-69
2022/11/20 04:58:02;;;;;;;11.98;7.40;;;;;;;;;;5109214;27;20050;-69
2022/11/20 05:00:28;;;;;;;13.80;8.57;;;;;;;;;;5118748;27;20039;-69
2022/11/20 05:02:54;;;;;;;11.82;7.70;;;;;;;;;;5105250;28;20487;-69
2022/11/20 05:05:20;;;;;;;11.90;7.20;;;;;;;;;;5103716;28;20042;-69
2022/11/20 05:07:46;;;;;;;9.82;7.20;;;;;;;;;;5115472;27;20091;-68
2022/11/20 05:10:13;;;;;;;10.45;7.22;;;;;;;;;;5124650;28;20079;-69
2022/11/20 05:12:39;;;;;;;15.27;8.15;;;;;;;;;;5104963;28;20122;-69
2022/11/20 05:15:05;;;;;;;12.75;8.10;;;;;;;;;;5122189;28;20116;-68
2022/11/20 05:17:31;;;;;;;11.57;7.45;;;;;;;;;;5116036;28;20428;-69
2022/11/20 05:19:57;;;;;;;13.50;8.60;;;;;;;;;;5103296;28;20076;-68
2022/11/20 05:22:23;;;;;;;11.00;7.00;;;;;;;;;;5114763;28;20103;-69
2022/11/20 05:24:50;;;;;;;13.57;8.57;;;;;;;;;;5114556;28;20051;-69
2022/11/20 05:27:16;;;;;;;14.70;7.38;;;;;;;;;;5110092;28;20074;-69
2022/11/20 05:29:42;;;;;;;14.10;8.07;;;;;;;;;;5126061;28;20488;-69
2022/11/20 05:32:09;;;;;;;13.00;7.70;;;;;;;;;;5109969;28;20126;-68
2022/11/20 05:34:35;;;;;;;12.10;7.72;;;;;;;;;;5108654;28;20125;-68
2022/11/20 05:37:02;;;;;;;12.75;8.30;;;;;;;;;;5122819;28;20066;-69
2022/11/20 05:39:28;;;;;;;13.48;8.43;;;;;;;;;;5116327;28;20081;-68
2022/11/20 05:44:39;;;;;;;14.48;8.85;;;;;;;;;;5125284;28;20035;-69
2022/11/20 05:47:06;;;;;;;12.43;7.47;;;;;;;;;;5122590;28;20035;-69
2022/11/20 05:49:32;;;;;;;11.43;8.13;;;;;;;;;;5125736;28;20039;-69
2022/11/20 05:51:58;;;;;;;11.50;7.72;;;;;;;;;;5118782;28;20197;-69
2022/11/20 05:54:24;;;;;;;11.98;8.18;;;;;;;;;;5100425;28;20039;-69
2022/11/20 05:56:50;;;;;;;12.05;7.68;;;;;;;;;;5104104;28;20062;-68
2022/11/20 05:59:16;;;;;;;11.75;8.10;;;;;;;;;;5116888;28;20040;-69
2022/11/20 06:01:43;;;;;;;10.57;7.60;;;;;;;;;;5109603;28;20377;-69
2022/11/20 06:04:09;;;;;;;12.52;7.82;;;;;;;;;;5095642;28;20035;-69
2022/11/20 06:06:35;;;;;;;13.13;8.48;;;;;;;;;;5116553;28;20035;-68
2022/11/20 06:09:01;;;;;;;12.68;8.18;;;;;;;;;;5119565;28;20043;-68
2022/11/20 06:11:27;;;;;;;13.40;8.65;;;;;;;;;;5112944;28;20047;-68
2022/11/20 06:13:53;;;;;;;12.52;7.93;;;;;;;;;;5115845;28;20035;-69
2022/11/20 06:16:21;;;;;;;12.77;7.97;;;;;;;;;;5120546;28;20042;-69
2022/11/20 06:18:48;;;;;;;13.50;8.88;;;;;;;;;;5109915;28;20282;-69
2022/11/20 06:21:15;;;;;;;12.25;8.15;;;;;;;;;;5106431;28;20028;-68
2022/11/20 06:23:42;;;;;;;12.35;7.78;;;;;;;;;;5121667;27;20141;-69
2022/11/20 06:26:09;;;;;;;13.35;8.65;;;;;;;;;;5110015;27;20477;-69
2022/11/20 06:28:35;;;;;;;13.10;8.85;;;;;;;;;;5129936;27;20046;-68
2022/11/20 06:31:02;;;;;;;12.60;7.07;;;;;;;;;;5096174;27;20422;-69
2022/11/20 06:33:28;;;;;;;12.23;8.80;;;;;;;;;;5125206;27;20488;-69
2022/11/20 06:35:57;;;;;;;13.52;7.93;;;;;;;;;;5107219;27;20070;-68
2022/11/20 06:38:23;;;;;;;14.55;7.55;;;;;;;;;;5122966;27;20103;-69
2022/11/20 06:40:49;;;;;;;15.60;8.95;;;;;;;;;;5107500;27;20038;-69
2022/11/20 06:43:15;;;;;;;13.48;9.13;;;;;;;;;;5108493;27;20478;-69
2022/11/20 06:45:41;;;;;;;14.25;8.57;;;;;;;;;;5124408;27;20434;-69
2022/11/20 06:48:07;;;;;;;13.65;8.40;;;;;;;;;;5120862;27;20077;-68
2022/11/20 06:50:34;;;;;;;12.60;8.90;;;;;;;;;;5131700;27;20050;-69
2022/11/20 06:53:03;;;;;;;13.95;8.70;;;;;;;;;;5103899;27;20031;-69
2022/11/20 06:55:30;;;;;;;12.00;7.90;;;;;;;;;;5125273;27;20035;-69
2022/11/20 06:57:56;;;;;;;13.32;9.05;;;;;;;;;;5129255;27;20560;-69
2022/11/20 07:00:22;;;;;;;11.90;8.35;;;;;;;;;;5123546;27;20031;-69
2022/11/20 07:02:48;;;;;;;14.43;9.25;;;;;;;;;;5107725;27;20061;-69
2022/11/20 07:05:14;;;;;;;15.02;8.48;;;;;;;;;;5108700;27;20036;-68
2022/11/20 07:07:40;;;;;;;13.88;9.18;;;;;;;;;;5122574;27;20031;-69
2022/11/20 07:10:07;;;;;;;13.45;7.85;;;;;;;;;;5116185;27;20058;-69
2022/11/20 07:12:33;;;;;;;14.60;9.13;;;;;;;;;;5103517;27;20044;-68
2022/11/20 07:14:59;;;;;;;17.13;9.68;;;;;;;;;;5128848;27;20064;-69
2022/11/20 07:17:25;;;;;;;14.90;9.20;;;;;;;;;;5113155;27;20511;-68
2022/11/20 07:19:51;;;;;;;14.13;8.80;;;;;;;;;;5119310;27;20043;-68
2022/11/20 07:22:18;;;;;;;13.95;8.80;;;;;;;;;;5108877;27;20043;-68
2022/11/20 07:24:44;;;;;;;13.43;9.38;;;;;;;;;;5124878;27;20035;-68
2022/11/20 07:27:10;;;;;;;14.02;8.98;;;;;;;;;;5107347;28;20126;-69
2022/11/20 07:29:36;;;;;;;11.35;8.25;;;;;;;;;;5104654;27;20039;-69
2022/11/20 07:32:02;;;;;;;14.43;9.43;;;;;;;;;;5126369;27;20043;-69
2022/11/20 07:34:28;;;;;;;15.20;9.55;;;;;;;;;;5126412;27;20039;-68
2022/11/20 07:36:54;;;;;;;15.52;9.60;;;;;;;;;;5121247;27;20523;-69
2022/11/20 07:39:20;;;;;;;14.52;9.65;;;;;;;;;;5111049;27;20114;-68
2022/11/20 07:41:46;;;;;;;17.63;10.93;;;;;;;;;;5129364;27;20110;-69
2022/11/20 07:44:12;;;;;;;12.52;9.20;;;;;;;;;;5116149;27;20100;-68
2022/11/20 07:46:38;;;;;;;16.52;9.02;;;;;;;;;;5109599;27;20111;-69
2022/11/20 07:49:05;;;;;;;16.83;9.88;;;;;;;;;;5101238;27;20043;-68
2022/11/20 07:51:31;;;;;;;14.35;9.00;;;;;;;;;;5121550;27;20039;-68
2022/11/20 07:53:57;;;;;;;13.75;9.60;;;;;;;;;;5106581;27;20065;-69
2022/11/20 07:56:23;;;;;;;15.32;9.70;;;;;;;;;;5108436;27;20507;-69
2022/11/20 07:58:49;;;;;;;14.60;10.43;;;;;;;;;;5096849;28;20039;-69
2022/11/20 08:01:15;;;;;;;13.88;9.75;;;;;;;;;;5108869;27;20500;-68
2022/11/20 08:03:41;;;;;;;14.32;9.50;;;;;;;;;;5108614;27;20043;-69
2022/11/20 08:06:08;;;;;;;15.98;9.95;;;;;;;;;;5109882;27;20365;-69
2022/11/20 08:08:34;;;;;;;13.00;10.02;;;;;;;;;;5101894;27;20497;-69
2022/11/20 08:16:30;;;;;;;12.57;8.65;;;;;;;;;;5120904;27;20121;-69
2022/11/20 08:18:56;;;;;;;14.95;9.80;;;;;;;;;;5107632;27;20043;-69
2022/11/20 08:21:23;;;;;;;13.65;9.05;;;;;;;;;;5126140;27;20039;-69
2022/11/20 08:23:49;;;;;;;14.05;9.13;;;;;;;;;;5107738;27;20392;-69
2022/11/20 08:26:16;;;;;;;14.73;9.68;;;;;;;;;;5121072;27;20395;-69
2022/11/20 08:28:42;;;;;;;17.10;11.00;;;;;;;;;;5114355;27;20052;-69
2022/11/20 08:31:09;;;;;;;16.08;9.65;;;;;;;;;;5123740;27;20046;-69
2022/11/20 08:33:35;;;;;;;13.25;9.50;;;;;;;;;;5108163;27;20042;-69
2022/11/20 08:36:05;;;;;;;16.48;8.05;;;;;;;;;;5110354;27;20043;-69
2022/11/20 08:38:31;;;;;;;13.30;8.82;;;;;;;;;;5123527;27;20042;-69
2022/11/20 08:43:43;;;;;;;16.02;9.27;;;;;;;;;;5120301;27;20118;-69
2022/11/20 08:46:09;;;;;;;16.75;9.05;;;;;;;;;;5125401;27;20049;-68
2022/11/20 08:48:35;;;;;;;14.85;9.07;;;;;;;;;;5112266;27;20201;-69
2022/11/20 08:51:01;;;;;;;13.85;9.05;;;;;;;;;;5108132;28;20049;-69
2022/11/20 08:53:28;;;;;;;20.33;9.77;;;;;;;;;;5123341;27;20536;-69
2022/11/20 08:55:54;;;;;;;15.52;10.40;;;;;;;;;;5089944;28;20088;-69
2022/11/20 08:58:20;;;;;;;13.18;9.05;;;;;;;;;;5120463;27;20087;-69
2022/11/20 09:00:46;;;;;;;15.85;8.90;;;;;;;;;;5120567;27;20132;-69
2022/11/20 09:03:13;;;;;;;10.25;8.60;;;;;;;;;;5113894;27;20039;-69
2022/11/20 09:05:39;;;;;;;13.73;8.98;;;;;;;;;;5114889;27;20039;-69
2022/11/20 09:08:06;;;;;;;14.65;8.95;;;;;;;;;;5117015;27;20067;-69
2022/11/20 09:10:32;;;;;;;11.95;8.25;;;;;;;;;;5126413;28;20054;-69
2022/11/20 09:12:58;;;;;;;12.18;8.68;;;;;;;;;;5107893;28;20059;-69
2022/11/20 09:15:25;;;;;;;13.35;8.52;;;;;;;;;;5125304;28;20091;-69
2022/11/20 09:17:55;;;;;;;17.50;9.77;;;;;;;;;;5121975;28;20042;-69
2022/11/20 09:20:21;;;;;;;14.68;9.50;;;;;;;;;;5103881;28;20481;-69
2022/11/20 09:22:48;;;;;;;13.52;9.45;;;;;;;;;;5120212;28;20031;-69
2022/11/20 09:25:14;;;;;;;12.57;9.35;;;;;;;;;;5107613;28;20396;-69
2022/11/20 09:27:43;;;;;;;15.15;9.40;;;;;;;;;;5113606;28;20054;-69
2022/11/20 09:30:09;;;;;;;12.35;8.20;;;;;;;;;;5121147;28;20044;-69
2022/11/20 09:32:36;;;;;;;11.60;8.95;;;;;;;;;;5104833;28;20039;-69
2022/11/20 09:35:02;;;;;;;11.15;8.18;;;;;;;;;;5123317;28;20035;-69
2022/11/20 09:37:28;;;;;;;13.98;8.65;;;;;;;;;;5108638;28;20497;-69
2022/11/20 09:39:54;;;;;;;14.32;10.20;;;;;;;;;;5106998;28;20042;-69
2022/11/20 09:42:29;;;;;;;16.00;8.63;;;;;;;;;;5127482;28;20438;-69
2022/11/20 09:45:16;;;;;;;15.30;10.40;;;;;;;;;;5089624;28;20069;-69
2022/11/20 09:47:50;;;;;;;15.77;9.02;;;;;;;;;;5119010;28;20047;-69
2022/11/20 09:50:25;;;;;;;16.95;10.05;;;;;;;;;;5102660;28;20043;-69
2022/11/20 09:52:54;;;;;;;16.50;10.57;;;;;;;;;;5108823;28;20046;-69
2022/11/20 09:55:21;;;;;;;16.75;10.30;;;;;;;;;;5112508;28;20043;-69
2022/11/20 09:57:48;;;;;;;11.27;8.90;;;;;;;;;;5124929;27;20027;-69
2022/11/20 10:00:15;;;;;;;12.75;8.43;;;;;;;;;;5113269;27;20058;-69
2022/11/20 10:02:45;;;;;;;15.23;9.13;;;;;;;;;;5126532;27;20084;-69
2022/11/20 10:05:12;;;;;;;13.13;9.23;;;;;;;;;;5129700;27;20099;-69
2022/11/20 10:07:42;;;;;;;13.13;7.85;;;;;;;;;;5124249;27;20043;-69
2022/11/20 10:10:20;;;;;;;13.02;8.77;;;;;;;;;;5101977;28;20553;-69
2022/11/20 10:13:01;;;;;;;13.15;8.25;;;;;;;;;;5097165;28;20044;-69
2022/11/20 10:15:34;;;;;;;12.35;7.10;;;;;;;;;;5095475;28;20103;-69
2022/11/20 10:18:00;;;;;;;;;;;;;;;;;;5091889;28;20141;-69
2022/11/20 10:20:30;;;;;;;16.05;8.65;;;;;;;;;;5097767;28;19942;-69
2022/11/20 10:22:56;;;;;;;12.90;8.07;;;;;;;;;;5098366;28;20253;-69
2022/11/20 10:25:38;;;;;;;13.20;8.07;;;;;;;;;;5092594;28;20526;-69
2022/11/20 10:28:40;;;;;;;11.55;7.53;;;;;;;;;;5097543;28;20039;-69
2022/11/20 10:31:12;;;;;;;12.25;8.05;;;;;;;;;;5071724;28;20040;-69
2022/11/20 10:33:41;;;;;;;10.38;7.38;;;;;;;;;;5090651;28;20378;-69
2022/11/20 10:36:13;;;;;;;13.75;8.77;;;;;;;;;;5106113;28;20049;-69
2022/11/20 10:38:49;;;;;;;8.93;6.68;;;;;;;;;;5088115;28;20375;-69
2022/11/20 10:41:24;;;;;;;13.32;7.60;;;;;;;;;;5081303;28;20074;-69
2022/11/20 10:44:11;;;;;;;8.75;6.75;;;;;;;;;;5088342;28;20397;-69
2022/11/20 10:46:43;;;;;;;11.45;7.85;;;;;;;;;;5077545;28;20040;-69
2022/11/20 10:49:17;;;;;;;13.50;6.97;;;;;;;;;;5096431;28;20051;-68
2022/11/20 10:51:49;;;;;;;10.68;7.18;;;;;;;;;;5097729;28;20454;-68
2022/11/20 10:54:22;;;;;;;8.68;5.70;;;;;;;;;;5091606;28;20209;-68
2022/11/20 10:56:51;;;;;;;9.32;5.18;;;;;;;;;;5087324;28;20040;-68
2022/11/20 10:59:26;;;;;;;8.15;4.88;;;;;;;;;;5088892;28;20075;-68
2022/11/20 11:01:52;;;;;;;9.30;4.65;;;;;;;;;;5105205;28;20032;-68
2022/11/20 11:04:22;;;;;;;7.40;5.35;;;;;;;;;;5091326;28;20114;-68
2022/11/20 11:06:49;;;;;;;7.95;4.45;;;;;;;;;;5085805;28;20482;-68
2022/11/20 11:09:23;;;;;;;7.30;5.05;;;;;;;;;;5081761;28;20093;-68
2022/11/20 11:11:49;;;;;;;7.45;4.60;;;;;;;;;;5088758;28;20056;-68
2022/11/20 11:14:16;;;;;;;8.48;3.85;;;;;;;;;;5101509;28;20071;-68
2022/11/20 11:16:59;;;;;;;6.03;4.55;;;;;;;;;;5107630;28;20514;-69
2022/11/20 11:19:25;;;;;;;6.22;3.95;;;;;;;;;;5100076;28;20036;-69
2022/11/20 11:21:56;;;;;;;7.90;4.95;;;;;;;;;;5102611;28;20055;-69
2022/11/20 11:24:26;;;;;;;7.78;4.53;;;;;;;;;;5106780;28;20145;-68
2022/11/20 11:27:06;;;;;;;6.75;4.70;;;;;;;;;;5092848;28;20039;-69
2022/11/20 11:29:33;;;;;;;10.10;5.25;;;;;;;;;;5104672;28;20521;-69
2022/11/20 11:32:12;;;;;;;8.00;4.75;;;;;;;;;;5099361;28;20548;-69
2022/11/20 11:34:38;;;;;;;8.00;4.63;;;;;;;;;;5094039;28;20042;-69
2022/11/20 11:37:05;;;;;;;8.05;5.55;;;;;;;;;;5113912;27;20039;-69
2022/11/20 11:39:33;;;;;;;8.85;5.90;;;;;;;;;;5104029;28;20083;-68
2022/11/20 11:42:00;;;;;;;7.25;4.70;;;;;;;;;;5101765;28;20093;-68
2022/11/20 11:47:30;;;;;;;8.70;6.05;;;;;;;;;;5099957;28;20047;-68
2022/11/20 11:50:15;;;;;;;7.53;4.65;;;;;;;;;;5099943;28;20042;-68
2022/11/20 11:52:44;;;;;;;7.38;4.30;;;;;;;;;;5101602;28;20043;-69
2022/11/20 11:55:14;;;;;;;6.80;4.32;;;;;;;;;;5100548;28;20118;-68
2022/11/20 11:57:50;;;;;;;7.82;5.20;;;;;;;;;;5098104;28;20335;-68
2022/11/20 12:00:18;;;;;;;5.85;3.72;;;;;;;;;;5101593;28;20067;-69
2022/11/20 12:02:50;;;;;;;9.25;4.53;;;;;;;;;;5097790;28;20396;-68
2022/11/20 12:05:31;;;;;;;8.65;5.15;;;;;;;;;;5102165;28;20504;-68
2022/11/20 12:07:57;;;;;;;7.15;4.55;;;;;;;;;;5103512;28;20039;-69
2022/11/20 12:10:31;;;;;;;7.00;4.15;;;;;;;;;;5110986;27;21796;-68
2022/11/20 12:13:20;;;;;;;8.32;5.25;;;;;;;;;;5108552;27;20496;-68
2022/11/20 12:15:47;;;;;;;9.50;4.72;;;;;;;;;;5109232;27;20553;-68
2022/11/20 12:18:21;;;;;;;7.07;4.93;;;;;;;;;;5120701;27;20126;-68
2022/11/20 12:21:07;;;;;;;6.97;4.88;;;;;;;;;;5107507;28;20046;-68
2022/11/20 12:23:52;;;;;;;6.55;4.50;;;;;;;;;;5112860;27;20424;-68
2022/11/20 12:26:33;;;;;;;7.63;4.82;;;;;;;;;;5121830;27;20220;-68
2022/11/20 12:29:22;;;;;;;5.50;4.30;;;;;;;;;;5120291;27;20057;-68
2022/11/20 12:31:49;;;;;;;7.07;4.38;;;;;;;;;;5080838;27;20050;-68
2022/11/20 12:34:33;;;;;;;6.97;4.13;;;;;;;;;;5127313;27;20096;-68
2022/11/20 12:37:18;;;;;;;9.98;5.80;;;;;;;;;;5106438;27;20050;-68
2022/11/20 12:39:48;;;;;;;8.13;4.88;;;;;;;;;;5109594;27;20043;-68
2022/11/20 12:45:11;;;;;;;10.93;4.68;;;;;;;;;;5120493;27;20171;-68
2022/11/20 12:47:46;;;;;;;7.88;4.40;;;;;;;;;;5123643;27;20043;-68
2022/11/20 12:50:32;;;;;;;6.60;4.50;;;;;;;;;;5110207;27;20116;-68
2022/11/20 12:53:17;;;;;;;6.75;4.28;;;;;;;;;;5106811;27;20051;-68
2022/11/20 12:55:43;;;;;;;4.93;3.58;;;;;;;;;;5108305;27;20039;-68
2022/11/20 12:58:25;;;;;;;7.70;4.82;;;;;;;;;;5124381;27;20042;-68
2022/11/20 13:00:56;;;;;;;8.02;5.55;;;;;;;;;;5118196;27;20074;-68
2022/11/20 13:03:28;;;;;;;5.95;4.97;;;;;;;;;;5117681;27;20549;-68
2022/11/20 13:06:05;;;;;;;7.13;4.70;;;;;;;;;;5122497;27;20664;-68
2022/11/20 13:08:36;;;;;;;7.13;4.47;;;;;;;;;;5098344;27;20049;-69
2022/11/20 13:11:05;;;;;;;7.20;5.05;;;;;;;;;;5124414;27;20059;-69
2022/11/20 13:13:47;;;;;;;8.68;5.63;;;;;;;;;;5127730;28;20099;-69
2022/11/20 13:16:30;;;;;;;7.63;4.80;;;;;;;;;;5116433;28;20023;-69
2022/11/20 13:18:57;;;;;;;6.63;4.38;;;;;;;;;;5108127;28;20409;-69
2022/11/20 13:21:35;;;;;;;7.45;4.05;;;;;;;;;;5105186;28;20042;-69
2022/11/20 13:24:05;;;;;;;6.70;4.07;;;;;;;;;;5116772;28;20137;-69
2022/11/20 13:26:31;;;;;;;7.25;3.90;;;;;;;;;;5093089;28;20107;-69
2022/11/20 13:29:11;;;;;;;5.65;4.03;;;;;;;;;;5104735;28;20039;-69
2022/11/20 13:31:40;;;;;;;8.48;4.93;;;;;;;;;;5115221;28;20043;-69
2022/11/20 13:34:07;;;;;;;7.75;4.82;;;;;;;;;;5086808;27;20139;-69
2022/11/20 13:36:34;;;;;;;6.28;4.47;;;;;;;;;;5118973;27;20035;-69
2022/11/20 13:39:01;;;;;;;10.70;4.97;;;;;;;;;;5114444;27;20124;-69
2022/11/20 13:41:35;;;;;;;9.02;5.95;;;;;;;;;;5125910;27;20034;-69
2022/11/20 13:44:07;;;;;;;5.97;4.88;;;;;;;;;;5101636;27;20059;-69
2022/11/20 13:46:42;;;;;;;8.30;4.50;;;;;;;;;;5121725;27;20038;-68
2022/11/20 13:49:28;;;;;;;6.13;4.78;;;;;;;;;;5117089;27;20042;-69
2022/11/20 13:52:00;;;;;;;9.90;5.07;;;;;;;;;;5111880;27;20046;-69
2022/11/20 13:54:51;;;;;;;7.68;5.25;;;;;;;;;;5107665;27;20092;-69
2022/11/20 13:57:36;;;;;;;5.95;4.30;;;;;;;;;;5110055;27;20560;-69
2022/11/20 14:00:17;;;;;;;8.45;4.90;;;;;;;;;;5121187;27;20070;-70
2022/11/20 14:02:44;;;;;;;6.82;5.03;;;;;;;;;;5121979;27;20230;-69
2022/11/20 14:05:23;;;;;;;7.97;4.93;;;;;;;;;;5119570;27;20040;-69
2022/11/20 14:07:50;;;;;;;11.02;5.88;;;;;;;;;;5105347;27;20031;-69
2022/11/20 14:10:21;;;;;;;6.88;4.57;;;;;;;;;;5117694;27;20047;-69
2022/11/20 14:12:47;;;;;;;9.20;4.50;;;;;;;;;;5125112;27;20051;-69
2022/11/20 14:15:34;;;;;;;7.03;4.82;;;;;;;;;;5093834;27;20038;-68
2022/11/20 14:18:00;;;;;;;8.43;5.35;;;;;;;;;;5107252;27;20073;-69
2022/11/20 14:20:28;;;;;;;7.65;4.82;;;;;;;;;;5119405;27;20172;-69
2022/11/20 14:22:56;;;;;;;6.65;5.20;;;;;;;;;;5120511;27;20031;-69
2022/11/20 14:25:26;;;;;;;6.93;4.55;;;;;;;;;;5108995;27;20488;-69
2022/11/20 14:28:03;;;;;;;8.05;5.90;;;;;;;;;;5113484;27;20028;-69
2022/11/20 14:30:43;;;;;;;7.68;5.47;;;;;;;;;;5109725;27;20063;-69
2022/11/20 14:33:13;;;;;;;8.85;5.13;;;;;;;;;;5091685;27;20504;-70
2022/11/20 14:35:43;;;;;;;6.85;4.75;;;;;;;;;;5075188;27;20043;-69
2022/11/20 14:38:12;;;;;;;8.25;5.63;;;;;;;;;;5114133;27;20043;-66
2022/11/20 14:40:39;;;;;;;8.40;5.38;;;;;;;;;;5122594;27;20035;-67
2022/11/20 14:43:17;;;;;;;7.80;5.70;;;;;;;;;;5112400;27;20048;-67
2022/11/20 14:45:45;;;;;;;8.68;5.30;;;;;;;;;;5116422;27;20054;-68
2022/11/20 14:48:11;;;;;;;8.52;5.25;;;;;;;;;;5119175;27;20040;-68
2022/11/20 14:50:38;;;;;;;8.40;4.90;;;;;;;;;;5128851;27;20099;-68
2022/11/20 14:53:05;;;;;;;8.90;4.63;;;;;;;;;;5126258;27;20043;-68
2022/11/20 14:55:32;;;;;;;8.27;5.35;;;;;;;;;;5131031;27;20045;-68
2022/11/20 14:58:03;;;;;;;8.10;5.43;;;;;;;;;;5128565;27;20118;-68
2022/11/20 15:00:31;;;;;;;8.95;5.22;;;;;;;;;;5125983;27;20035;-67
2022/11/20 15:02:57;;;;;;;7.78;4.90;;;;;;;;;;5123538;27;20127;-68